Time;durP1;ratioP1;P1;durP2;ratioP2;P2;SDS_P1;SDS_P2;PMS_P1;PMS_P2;Temp;Humidity;BMP_temperature;BMP_pressure;BME280_temperature;BME280_humidity;BME280_pressure;Samples;Min_cycle;Max_cycle;Signal;HPM_P1;HPM_P2
2022/03/01 00:00:56;;;;;;;4.28;2.38;;;;;;;-145.06;0.00;60892.56;4777199;28;20274;-90
2022/03/01 00:03:36;;;;;;;4.47;2.67;;;;;;;-145.06;0.00;60892.56;4763318;29;20035;-89
2022/03/01 00:06:15;;;;;;;3.88;2.60;;;;;;;-145.06;0.00;60892.56;4763464;29;20047;-90
2022/03/01 00:08:54;;;;;;;4.60;2.75;;;;;;;-145.06;0.00;60892.56;4775311;29;20039;-88
2022/03/01 00:11:33;;;;;;;3.45;2.35;;;;;;;-145.06;0.00;60892.56;4772333;29;20043;-89
2022/03/01 00:14:12;;;;;;;5.03;3.13;;;;;;;-145.06;0.00;60892.56;4764957;29;20043;-88
2022/03/01 00:16:51;;;;;;;4.60;2.57;;;;;;;-145.06;0.00;60892.56;4765552;28;20140;-89
2022/03/01 00:19:31;;;;;;;5.57;2.60;;;;;;;-145.06;0.00;60892.56;4778162;28;20611;-90
2022/03/01 00:22:10;;;;;;;4.47;2.78;;;;;;;-145.06;0.00;60892.56;4760617;29;20031;-89
2022/03/01 00:24:49;;;;;;;5.30;2.93;;;;;;;-145.06;0.00;60892.56;4763376;29;20039;-90
2022/03/01 00:27:28;;;;;;;5.20;2.60;;;;;;;-145.06;0.00;60892.56;4784883;28;20286;-90
2022/03/01 00:30:07;;;;;;;4.05;2.65;;;;;;;-145.06;0.00;60892.56;4758655;29;20034;-90
2022/03/01 00:32:46;;;;;;;4.47;2.72;;;;;;;-145.06;0.00;60892.56;4761488;29;20031;-89
2022/03/01 00:35:25;;;;;;;4.27;2.50;;;;;;;-145.06;0.00;60892.56;4777941;29;20047;-90
2022/03/01 00:38:04;;;;;;;4.85;2.65;;;;;;;-145.06;0.00;60892.56;4777978;29;20039;-90
2022/03/01 00:40:43;;;;;;;4.50;2.63;;;;;;;-145.06;0.00;60892.56;4766673;29;20047;-90
2022/03/01 00:43:23;;;;;;;3.87;2.47;;;;;;;-145.06;0.00;60892.56;4776162;28;20039;-88
2022/03/01 00:46:02;;;;;;;3.55;2.38;;;;;;;-145.06;0.00;60892.56;4761299;29;20035;-89
2022/03/01 00:48:41;;;;;;;4.97;2.90;;;;;;;-145.06;0.00;60892.56;4776183;29;20043;-89
2022/03/01 00:51:21;;;;;;;4.72;2.97;;;;;;;-145.06;0.00;60892.56;4764626;29;20035;-89
2022/03/01 00:54:00;;;;;;;4.05;2.83;;;;;;;-145.06;0.00;60892.56;4769258;28;20399;-88
2022/03/01 00:56:39;;;;;;;4.13;2.70;;;;;;;-145.06;0.00;60892.56;4765047;28;20620;-89
2022/03/01 00:59:18;;;;;;;4.18;2.60;;;;;;;-145.06;0.00;60892.56;4780334;28;20039;-90
2022/03/01 01:01:57;;;;;;;4.35;2.70;;;;;;;187.52;0.00;60892.56;4770018;28;20035;-91
2022/03/01 01:04:36;;;;;;;4.47;3.00;;;;;;;-145.06;0.00;60892.56;4766383;29;20370;-88
2022/03/01 01:07:15;;;;;;;4.50;2.88;;;;;;;10.68;0.00;60892.56;4767757;28;20804;-89
2022/03/01 01:09:54;;;;;;;4.22;2.67;;;;;;;-145.06;0.00;60892.56;4761869;29;20031;-88
2022/03/01 01:12:34;;;;;;;3.47;2.13;;;;;;;-145.06;0.00;60892.56;4766541;29;20047;-89
2022/03/01 01:15:16;;;;;;;5.45;3.22;;;;;;;-145.06;0.00;60892.56;4780311;28;20035;-91
2022/03/01 01:17:55;;;;;;;4.10;2.47;;;;;;;-145.06;0.00;60892.56;4766876;28;20034;-90
2022/03/01 01:20:34;;;;;;;4.30;2.58;;;;;;;-145.06;0.00;60892.56;4763609;29;20066;-90
2022/03/01 01:23:14;;;;;;;2.90;2.20;;;;;;;-145.06;0.00;60892.56;4760266;29;20028;-89
2022/03/01 01:25:53;;;;;;;3.03;2.03;;;;;;;-145.06;0.00;60892.56;4764651;29;20039;-89
2022/03/01 01:28:32;;;;;;;3.38;2.03;;;;;;;-145.06;0.00;60892.56;4780142;28;20065;-89
2022/03/01 01:31:11;;;;;;;3.50;2.37;;;;;;;-145.06;0.00;60892.56;4776705;29;20537;-89
2022/03/01 01:33:50;;;;;;;2.80;2.25;;;;;;;-145.06;0.00;60892.56;4763000;29;20039;-89
2022/03/01 01:36:29;;;;;;;4.38;3.05;;;;;;;-145.06;0.00;60892.56;4768803;28;20868;-88
2022/03/01 01:39:09;;;;;;;4.78;3.20;;;;;;;-145.06;0.00;60892.56;4777101;28;20059;-89
2022/03/01 01:41:48;;;;;;;5.95;3.50;;;;;;;-145.06;0.00;60892.56;4780034;29;20039;-88
2022/03/01 01:44:31;;;;;;;4.78;2.95;;;;;;;-145.06;0.00;60892.56;4792121;28;20390;-91
2022/03/01 01:47:10;;;;;;;5.85;2.65;;;;;;;-145.06;0.00;60892.56;4763704;29;20035;-89
2022/03/01 01:49:49;;;;;;;4.93;3.10;;;;;;;2.73;0.00;60892.56;4766884;29;20047;-89
2022/03/01 01:52:28;;;;;;;4.38;2.47;;;;;;;-145.06;0.00;60892.56;4768378;29;20291;-91
2022/03/01 01:55:08;;;;;;;4.83;2.90;;;;;;;-145.06;0.00;60892.56;4768461;29;20592;-92
2022/03/01 01:57:47;;;;;;;4.80;2.75;;;;;;;-145.06;0.00;60892.56;4773424;28;20031;-89
2022/03/01 02:00:28;;;;;;;4.90;2.55;;;;;;;-145.06;0.00;60892.56;4778915;29;20043;-91
2022/03/01 02:03:08;;;;;;;3.65;2.30;;;;;;;-145.06;0.00;60892.56;4767309;29;20031;-89
2022/03/01 02:05:47;;;;;;;3.53;2.25;;;;;;;-145.06;0.00;60892.56;4764955;29;20031;-89
2022/03/01 02:08:33;;;;;;;3.55;2.45;;;;;;;-145.06;0.00;60892.56;4764553;29;20122;-89
2022/03/01 02:11:12;;;;;;;4.10;2.17;;;;;;;-145.06;0.00;60892.56;4778281;28;20047;-90
2022/03/01 02:13:51;;;;;;;4.13;2.50;;;;;;;2.73;0.00;60892.56;4781299;28;20035;-90
2022/03/01 02:16:30;;;;;;;3.97;2.50;;;;;;;187.52;0.00;60892.56;4764493;28;20764;-89
2022/03/01 02:19:13;;;;;;;4.63;2.90;;;;;;;-145.06;0.00;60892.56;4768738;29;20039;-90
2022/03/01 02:21:57;;;;;;;4.10;2.35;;;;;;;-145.06;0.00;60892.56;4768160;29;20039;-90
2022/03/01 02:24:36;;;;;;;3.28;2.30;;;;;;;-145.06;0.00;60892.56;4764037;28;20039;-90
2022/03/01 02:27:15;;;;;;;4.00;2.70;;;;;;;-145.06;0.00;60892.56;4768974;29;20035;-90
2022/03/01 02:29:54;;;;;;;4.07;2.60;;;;;;;10.68;0.00;60892.56;4779558;29;20579;-90
2022/03/01 02:32:34;;;;;;;3.03;2.07;;;;;;;-145.06;0.00;60892.56;4764244;29;20773;-91
2022/03/01 02:35:13;;;;;;;;;;;;;;;-145.06;0.00;60892.56;4765251;29;20629;-90
2022/03/01 02:37:53;;;;;;;3.30;2.10;;;;;;;-145.06;0.00;60892.56;4789680;28;19918;-90
2022/03/01 02:40:32;;;;;;;2.80;2.00;;;;;;;-145.06;0.00;60892.56;4766061;29;20039;-89
2022/03/01 02:43:10;;;;;;;4.05;2.30;;;;;;;-145.06;0.00;60892.56;4765233;29;20035;-89
2022/03/01 02:45:51;;;;;;;3.47;2.25;;;;;;;-145.06;0.00;60892.56;4763300;29;20035;-90
2022/03/01 02:48:30;;;;;;;3.72;2.10;;;;;;;-145.06;0.00;60892.56;4766901;29;20063;-89
2022/03/01 02:51:09;;;;;;;4.27;2.70;;;;;;;-145.06;0.00;60892.56;4769084;28;20035;-90
2022/03/01 02:53:48;;;;;;;6.23;2.40;;;;;;;-145.06;0.00;60892.56;4782690;28;20035;-90
2022/03/01 02:56:27;;;;;;;3.30;2.13;;;;;;;-145.06;0.00;60892.56;4780007;29;20278;-90
2022/03/01 02:59:06;;;;;;;3.03;2.00;;;;;;;2.64;0.00;60892.56;4766357;29;20039;-90
2022/03/01 03:01:46;;;;;;;3.30;2.35;;;;;;;-145.06;0.00;60892.56;4765722;29;20473;-89
2022/03/01 03:04:25;;;;;;;4.07;2.40;;;;;;;2.61;0.00;60892.56;4767717;28;20047;-90
2022/03/01 03:07:04;;;;;;;3.03;2.20;;;;;;;-145.06;0.00;60892.56;4764514;29;20043;-90
2022/03/01 03:09:43;;;;;;;4.07;2.23;;;;;;;-145.06;0.00;60892.56;4769819;29;20489;-90
2022/03/01 03:12:22;;;;;;;3.35;2.10;;;;;;;-145.06;0.00;60892.56;4760303;29;20035;-89
2022/03/01 03:15:02;;;;;;;3.33;2.05;;;;;;;-145.06;0.00;60892.56;4779882;29;20043;-90
2022/03/01 03:17:41;;;;;;;3.88;2.40;;;;;;;-145.06;0.00;60892.56;4767742;29;20445;-89
2022/03/01 03:20:21;;;;;;;4.72;2.85;;;;;;;-145.06;0.00;60892.56;4765105;29;20493;-89
2022/03/01 03:23:00;;;;;;;4.40;2.50;;;;;;;2.52;0.00;60892.56;4765159;29;20039;-89
2022/03/01 03:25:39;;;;;;;3.70;2.20;;;;;;;-145.06;0.00;60892.56;4765673;29;20425;-90
2022/03/01 03:28:18;;;;;;;4.00;2.30;;;;;;;-145.06;0.00;60892.56;4765009;29;20271;-88
2022/03/01 03:30:57;;;;;;;3.28;2.28;;;;;;;-145.06;0.00;60892.56;4777567;29;20456;-89
2022/03/01 03:33:36;;;;;;;3.40;2.15;;;;;;;-145.06;0.00;60892.56;4766223;29;20027;-89
2022/03/01 03:36:15;;;;;;;4.10;2.53;;;;;;;-145.06;0.00;60892.56;4765438;29;20035;-89
2022/03/01 03:38:54;;;;;;;3.33;2.07;;;;;;;-145.06;0.00;60892.56;4779966;28;20765;-89
2022/03/01 03:41:33;;;;;;;4.28;2.47;;;;;;;-145.06;0.00;60892.56;4782492;28;20046;-89
2022/03/01 03:44:13;;;;;;;4.28;2.55;;;;;;;-145.06;0.00;60892.56;4782699;28;20374;-90
2022/03/01 03:46:52;;;;;;;3.33;2.22;;;;;;;-145.06;0.00;60892.56;4764487;29;20047;-90
2022/03/01 03:49:31;;;;;;;3.35;2.40;;;;;;;-145.06;0.00;60892.56;4768072;29;20454;-91
2022/03/01 03:52:09;;;;;;;3.63;2.37;;;;;;;-145.06;0.00;60892.56;4764258;29;20035;-89
2022/03/01 03:54:50;;;;;;;4.43;2.65;;;;;;;-145.06;0.00;60892.56;4768218;29;20039;-89
2022/03/01 03:57:29;;;;;;;3.72;2.20;;;;;;;10.68;0.00;60892.56;4764200;29;20066;-89
2022/03/01 04:00:15;;;;;;;3.87;2.37;;;;;;;-145.06;0.00;60892.56;4765987;29;20031;-89
2022/03/01 04:02:54;;;;;;;3.90;2.40;;;;;;;-145.06;0.00;60892.56;4764115;28;20035;-89
2022/03/01 04:05:34;;;;;;;3.03;2.35;;;;;;;-145.06;0.00;60892.56;4766514;28;20137;-89
2022/03/01 04:08:13;;;;;;;3.42;2.60;;;;;;;-145.06;0.00;60892.56;4777222;28;20051;-88
2022/03/01 04:10:52;;;;;;;3.92;2.38;;;;;;;-145.06;0.00;60892.56;4771504;29;20031;-89
2022/03/01 04:13:32;;;;;;;4.32;2.42;;;;;;;-145.06;0.00;60892.56;4789748;28;20031;-90
2022/03/01 04:16:11;;;;;;;3.40;2.30;;;;;;;-145.06;0.00;60892.56;4762107;29;20035;-89
2022/03/01 04:18:50;;;;;;;4.47;2.43;;;;;;;-145.06;0.00;60892.56;4765663;29;20027;-89
2022/03/01 04:21:30;;;;;;;3.90;2.10;;;;;;;-145.06;0.00;60892.56;4766153;28;20035;-90
2022/03/01 04:24:09;;;;;;;3.60;2.47;;;;;;;-145.06;0.00;60892.56;4778753;28;20473;-89
2022/03/01 04:26:48;;;;;;;3.33;1.93;;;;;;;-145.06;0.00;60892.56;4765754;29;20058;-90
2022/03/01 04:29:26;;;;;;;3.85;2.47;;;;;;;-145.06;0.00;60892.56;4763580;29;20361;-89
2022/03/01 04:32:06;;;;;;;3.77;2.23;;;;;;;-145.06;0.00;60892.56;4761000;28;20039;-90
2022/03/01 04:34:45;;;;;;;4.00;2.40;;;;;;;-145.06;0.00;60892.56;4781747;28;20039;-89
2022/03/01 04:37:24;;;;;;;3.70;2.30;;;;;;;2.31;0.00;60892.56;4762717;28;20055;-89
2022/03/01 04:40:08;;;;;;;3.03;2.07;;;;;;;-145.06;0.00;60892.56;4774020;28;20035;-89
2022/03/01 04:42:47;;;;;;;2.88;1.98;;;;;;;-145.06;0.00;60892.56;4761642;28;20886;-89
2022/03/01 04:45:26;;;;;;;2.70;1.80;;;;;;;-145.06;0.00;60892.56;4763522;29;20039;-91
2022/03/01 04:48:05;;;;;;;2.95;2.00;;;;;;;-145.06;0.00;60892.56;4777203;29;20035;-89
2022/03/01 04:50:44;;;;;;;4.40;2.50;;;;;;;-145.06;0.00;60892.56;4770547;29;20043;-90
2022/03/01 04:53:23;;;;;;;3.37;2.17;;;;;;;-145.06;0.00;60892.56;4764519;29;20035;-90
2022/03/01 04:56:02;;;;;;;3.10;1.98;;;;;;;-145.06;0.00;60892.56;4769640;28;20637;-89
2022/03/01 04:58:41;;;;;;;3.55;2.33;;;;;;;-145.06;0.00;60892.56;4775242;28;20039;-89
2022/03/01 05:01:20;;;;;;;2.45;1.67;;;;;;;-145.06;0.00;60892.56;4763507;29;20039;-90
2022/03/01 05:03:59;;;;;;;3.33;2.13;;;;;;;-145.06;0.00;60892.56;4776141;29;20824;-90
2022/03/01 05:06:38;;;;;;;3.53;2.00;;;;;;;-145.06;0.00;60892.56;4777441;28;20567;-89
2022/03/01 05:09:17;;;;;;;2.97;1.83;;;;;;;-145.06;0.00;60892.56;4763009;28;20039;-90
2022/03/01 05:11:56;;;;;;;2.75;1.90;;;;;;;-145.06;0.00;60892.56;4776004;28;20110;-90
2022/03/01 05:14:35;;;;;;;3.30;2.07;;;;;;;-145.06;0.00;60892.56;4761160;29;20769;-90
2022/03/01 05:17:14;;;;;;;3.10;2.20;;;;;;;-145.06;0.00;60892.56;4767117;29;20042;-89
2022/03/01 05:19:53;;;;;;;3.05;2.15;;;;;;;-145.06;0.00;60892.56;4761745;29;20270;-89
2022/03/01 05:22:32;;;;;;;3.17;2.10;;;;;;;-145.06;0.00;60892.56;4768915;28;20031;-90
2022/03/01 05:25:14;;;;;;;2.95;1.90;;;;;;;-145.06;0.00;60892.56;4782425;28;20043;-90
2022/03/01 05:27:53;;;;;;;3.22;2.00;;;;;;;2.46;0.00;60892.56;4764884;29;20125;-89
2022/03/01 05:30:32;;;;;;;2.70;2.15;;;;;;;2.89;0.00;60892.56;4769970;29;20032;-89
2022/03/01 05:33:12;;;;;;;2.97;1.85;;;;;;;187.52;0.00;60892.56;4771657;29;20071;-89
2022/03/01 05:35:50;;;;;;;2.70;1.85;;;;;;;-145.06;0.00;60892.56;4766664;28;20035;-90
2022/03/01 05:38:29;;;;;;;4.05;2.45;;;;;;;5.49;0.00;60892.56;4762082;28;20039;-90
2022/03/01 05:41:09;;;;;;;2.85;2.17;;;;;;;-145.06;0.00;60892.56;4769068;29;20374;-89
2022/03/01 05:43:48;;;;;;;2.92;2.00;;;;;;;-145.06;0.00;60892.56;4778559;29;20114;-90
2022/03/01 05:46:27;;;;;;;4.37;2.80;;;;;;;-145.06;0.00;60892.56;4765295;28;20035;-90
2022/03/01 05:49:07;;;;;;;3.57;2.60;;;;;;;-145.06;0.00;60892.56;4776915;29;20035;-90
2022/03/01 05:51:46;;;;;;;3.88;2.70;;;;;;;-145.06;0.00;60892.56;4791086;28;20626;-89
2022/03/01 05:54:25;;;;;;;4.60;2.97;;;;;;;-145.06;0.00;60892.56;4781050;28;20031;-88
2022/03/01 05:57:04;;;;;;;4.37;2.90;;;;;;;-145.06;0.00;60892.56;4763238;29;20354;-89
2022/03/01 05:59:43;;;;;;;6.80;4.15;;;;;;;2.89;0.00;60892.56;4769270;29;20035;-91
2022/03/01 06:02:22;;;;;;;5.70;3.35;;;;;;;21.08;0.00;60892.56;4771959;28;20028;-90
2022/03/01 06:05:01;;;;;;;7.03;4.37;;;;;;;2.85;0.00;60892.56;4775085;29;20046;-91
2022/03/01 06:07:40;;;;;;;6.38;3.95;;;;;;;-145.06;0.00;60892.56;4765424;29;20035;-88
2022/03/01 06:10:19;;;;;;;6.15;3.45;;;;;;;-145.06;0.00;60892.56;4767359;29;20047;-90
2022/03/01 06:12:58;;;;;;;4.93;3.30;;;;;;;-145.06;0.00;60892.56;4765517;29;20066;-90
2022/03/01 06:15:37;;;;;;;4.03;2.97;;;;;;;21.08;0.00;60892.56;4765483;29;20043;-91
2022/03/01 06:18:16;;;;;;;4.47;2.55;;;;;;;-145.06;0.00;60892.56;4769285;29;20118;-91
2022/03/01 06:20:55;;;;;;;4.77;2.93;;;;;;;-145.06;0.00;60892.56;4779138;29;20035;-90
2022/03/01 06:23:34;;;;;;;5.10;3.08;;;;;;;-145.06;0.00;60892.56;4760809;29;20042;-90
2022/03/01 06:26:14;;;;;;;3.75;2.53;;;;;;;21.08;0.00;60892.56;4763947;29;20070;-91
2022/03/01 06:28:53;;;;;;;4.00;2.78;;;;;;;-145.06;0.00;60892.56;4772941;28;20035;-90
2022/03/01 06:31:32;;;;;;;4.65;2.75;;;;;;;-145.06;0.00;60892.56;4765064;29;20043;-89
2022/03/01 06:34:11;;;;;;;4.65;2.60;;;;;;;-145.06;0.00;60892.56;4767289;29;20047;-90
2022/03/01 06:36:50;;;;;;;3.13;2.28;;;;;;;-145.06;0.00;60892.56;4766024;29;20043;-90
2022/03/01 06:39:29;;;;;;;6.03;3.10;;;;;;;-145.06;0.00;60892.56;4766881;29;20118;-90
2022/03/01 06:42:10;;;;;;;2.95;2.03;;;;;;;-145.06;0.00;60892.56;4778783;28;20362;-90
2022/03/01 06:44:49;;;;;;;4.75;2.28;;;;;;;21.08;0.00;60892.56;4766591;28;20039;-90
2022/03/01 06:47:28;;;;;;;3.10;2.10;;;;;;;-145.06;0.00;60892.56;4771049;28;20043;-90
2022/03/01 06:50:09;;;;;;;3.38;2.00;;;;;;;-145.06;0.00;60892.56;4778016;29;20035;-90
2022/03/01 06:52:49;;;;;;;3.80;2.40;;;;;;;-145.06;0.00;60892.56;4764753;29;20043;-90
2022/03/01 06:55:28;;;;;;;3.03;2.23;;;;;;;-145.06;0.00;60892.56;4763133;29;20031;-90
2022/03/01 06:58:07;;;;;;;3.33;2.13;;;;;;;-145.06;0.00;60892.56;4764785;29;20038;-89
2022/03/01 07:00:46;;;;;;;3.22;2.28;;;;;;;-145.06;0.00;60892.56;4763326;29;20278;-90
2022/03/01 07:03:25;;;;;;;4.07;2.30;;;;;;;-145.06;0.00;60892.56;4782059;28;20031;-89
2022/03/01 07:06:04;;;;;;;3.50;2.43;;;;;;;-145.06;0.00;60892.56;4779268;28;20279;-91
2022/03/01 07:08:44;;;;;;;4.07;2.60;;;;;;;-145.06;0.00;60892.56;4764826;29;20031;-89
2022/03/01 07:11:22;;;;;;;3.67;2.55;;;;;;;-145.06;0.00;60892.56;4778355;28;20039;-90
2022/03/01 07:14:01;;;;;;;3.50;2.30;;;;;;;-145.06;0.00;60892.56;4761898;29;20430;-90
2022/03/01 07:16:40;;;;;;;3.15;2.25;;;;;;;-145.06;0.00;60892.56;4764097;29;20058;-90
2022/03/01 07:19:19;;;;;;;2.93;1.90;;;;;;;-145.06;0.00;60892.56;4758608;29;20752;-91
2022/03/01 07:21:58;;;;;;;3.40;2.30;;;;;;;-145.06;0.00;60892.56;4764061;29;20271;-91
2022/03/01 07:24:37;;;;;;;3.05;2.08;;;;;;;-145.06;0.00;60892.56;4769713;29;20433;-91
2022/03/01 07:27:16;;;;;;;3.23;2.23;;;;;;;-145.06;0.00;60892.56;4778001;29;20047;-92
2022/03/01 07:29:56;;;;;;;2.85;2.10;;;;;;;-145.06;0.00;60892.56;4765040;29;20687;-91
2022/03/01 07:32:35;;;;;;;3.33;2.15;;;;;;;-145.06;0.00;60892.56;4782382;28;20039;-91
2022/03/01 07:35:15;;;;;;;3.53;2.20;;;;;;;-145.06;0.00;60892.56;4782261;28;20390;-91
2022/03/01 07:37:54;;;;;;;;;;;;;;;-145.06;0.00;60892.56;4768407;28;20059;-90
2022/03/01 07:40:33;;;;;;;3.00;2.00;;;;;;;-145.06;0.00;60892.56;4766130;29;20377;-90
2022/03/01 07:43:13;;;;;;;2.83;2.08;;;;;;;-145.06;0.00;60892.56;4764465;29;20031;-90
2022/03/01 07:45:52;;;;;;;2.85;1.95;;;;;;;-145.06;0.00;60892.56;4760460;29;20027;-91
2022/03/01 07:48:31;;;;;;;3.55;2.42;;;;;;;-145.06;0.00;60892.56;4770778;29;20494;-91
2022/03/01 07:51:10;;;;;;;3.73;2.60;;;;;;;-145.06;0.00;60892.56;4766200;29;20430;-92
2022/03/01 07:53:50;;;;;;;;;;;;;;;-145.06;0.00;60892.56;4768144;29;20549;-90
2022/03/01 07:56:30;;;;;;;3.60;2.40;;;;;;;-145.06;0.00;60892.56;4795327;28;19914;-90
2022/03/01 07:59:09;;;;;;;3.78;2.63;;;;;;;-145.06;0.00;60892.56;4767323;29;20035;-91
2022/03/01 08:01:47;;;;;;;3.25;2.28;;;;;;;-145.06;0.00;60892.56;4760373;29;20030;-91
2022/03/01 08:04:26;;;;;;;4.00;2.77;;;;;;;-145.06;0.00;60892.56;4773722;28;20121;-90
2022/03/01 08:07:09;;;;;;;4.97;2.90;;;;;;;-145.06;0.00;60892.56;4770633;29;20110;-91
2022/03/01 08:09:48;;;;;;;3.47;2.30;;;;;;;-145.06;0.00;60892.56;4783409;28;20121;-90
2022/03/01 08:12:27;;;;;;;4.65;3.00;;;;;;;-145.06;0.00;60892.56;4764731;29;20118;-91
2022/03/01 08:15:07;;;;;;;4.22;2.42;;;;;;;-145.06;0.00;60892.56;4765674;29;20035;-91
2022/03/01 08:17:52;;;;;;;3.85;2.72;;;;;;;-145.06;0.00;60892.56;4761009;29;20074;-90
2022/03/01 08:20:31;;;;;;;4.05;2.50;;;;;;;-145.06;0.00;60892.56;4765421;29;20034;-91
2022/03/01 08:23:11;;;;;;;4.07;2.60;;;;;;;-145.06;0.00;60892.56;4759495;29;20035;-91
2022/03/01 08:25:50;;;;;;;4.47;2.88;;;;;;;-145.06;0.00;60892.56;4722881;29;1194374;-91
2022/03/01 08:28:29;;;;;;;4.45;2.83;;;;;;;-145.06;0.00;60892.56;4770500;28;20034;-91
2022/03/01 08:31:08;;;;;;;4.82;3.22;;;;;;;-145.06;0.00;60892.56;4768573;29;20046;-91
2022/03/01 08:33:47;;;;;;;4.40;3.00;;;;;;;-145.06;0.00;60892.56;4772726;29;20114;-91
2022/03/01 08:36:26;;;;;;;4.03;2.83;;;;;;;-145.06;0.00;60892.56;4791943;28;20283;-92
2022/03/01 08:39:05;;;;;;;4.55;3.13;;;;;;;-145.06;0.00;60892.56;4782771;28;20804;-90
2022/03/01 08:41:44;;;;;;;4.57;2.95;;;;;;;-145.06;0.00;60892.56;4796774;28;20051;-92
2022/03/01 08:44:23;;;;;;;4.45;3.08;;;;;;;-145.06;0.00;60892.56;4791524;28;20669;-90
2022/03/01 08:47:03;;;;;;;4.85;2.88;;;;;;;-145.06;0.00;60892.56;4770506;29;20039;-90
2022/03/01 08:49:42;;;;;;;4.43;3.03;;;;;;;-145.06;0.00;60892.56;4785933;28;20035;-92
2022/03/01 08:52:21;;;;;;;3.80;2.67;;;;;;;-145.06;0.00;60892.56;4790442;28;20773;-92
2022/03/01 08:54:59;;;;;;;3.30;2.58;;;;;;;-145.06;0.00;60892.56;4767075;29;20066;-90
2022/03/01 08:57:38;;;;;;;4.93;2.75;;;;;;;-145.06;0.00;60892.56;4799539;28;20031;-93
2022/03/01 09:00:43;;;;;;;3.60;2.60;;;;;;;-145.06;0.00;60892.56;4769718;29;20032;-91
2022/03/01 09:03:36;;;;;;;3.20;2.05;;;;;;;-145.06;0.00;60892.56;4795216;29;20478;-91
2022/03/01 09:06:16;;;;;;;5.07;2.63;;;;;;;-145.06;0.00;60892.56;4796913;28;20043;-91
2022/03/01 09:09:24;;;;;;;3.17;2.30;;;;;;;-145.06;0.00;60892.56;4777309;29;20063;-91
2022/03/01 09:12:03;;;;;;;2.90;2.25;;;;;;;-145.06;0.00;60892.56;4769355;29;20066;-92
2022/03/01 09:14:43;;;;;;;5.03;2.60;;;;;;;-145.06;0.00;60892.56;4783522;29;20126;-90
2022/03/01 09:17:23;;;;;;;3.22;2.33;;;;;;;-145.06;0.00;60892.56;4788039;28;20106;-91
2022/03/01 09:20:03;;;;;;;3.88;2.70;;;;;;;-145.06;0.00;60892.56;4784690;29;20517;-91
2022/03/01 09:22:42;;;;;;;3.78;2.60;;;;;;;-145.06;0.00;60892.56;4778585;29;20031;-91
2022/03/01 09:25:24;;;;;;;4.63;3.08;;;;;;;-145.06;0.00;60892.56;4786885;28;20114;-90
2022/03/01 09:28:03;;;;;;;3.55;2.28;;;;;;;-145.06;0.00;60892.56;4769532;29;20035;-92
2022/03/01 09:30:43;;;;;;;5.53;2.65;;;;;;;-145.06;0.00;60892.56;4768274;29;20358;-92
2022/03/01 09:33:22;;;;;;;4.30;2.58;;;;;;;-145.06;0.00;60892.56;4768869;29;20355;-92
2022/03/01 09:36:01;;;;;;;4.90;2.20;;;;;;;-145.06;0.00;60892.56;4783385;28;20765;-91
2022/03/01 09:38:43;;;;;;;4.10;2.47;;;;;;;-145.06;0.00;60892.56;4776935;29;20271;-93
2022/03/01 09:41:25;;;;;;;4.03;2.15;;;;;;;-145.06;0.00;60892.56;4776831;29;20031;-92
2022/03/01 09:44:05;;;;;;;3.58;2.40;;;;;;;-145.06;0.00;60892.56;4764957;29;20371;-92
2022/03/01 09:46:44;;;;;;;4.43;2.78;;;;;;;-145.06;0.00;60892.56;4756349;29;20051;-91
2022/03/01 09:49:23;;;;;;;5.20;3.17;;;;;;;-145.06;0.00;60892.56;4787062;28;20046;-93
2022/03/01 09:52:02;;;;;;;4.33;2.70;;;;;;;-145.06;0.00;60892.56;4781660;28;20035;-91
2022/03/01 09:54:42;;;;;;;3.53;2.42;;;;;;;187.52;0.00;60892.56;4770325;28;20098;-91
2022/03/01 09:57:21;;;;;;;3.30;2.38;;;;;;;6.64;0.00;60892.56;4770041;29;20465;-92
2022/03/01 10:00:00;;;;;;;4.90;2.63;;;;;;;10.68;0.00;60892.56;4788528;28;20031;-89
2022/03/01 10:02:41;;;;;;;2.53;1.90;;;;;;;-145.06;0.00;60892.56;4769226;28;20023;-91
2022/03/01 10:05:31;;;;;;;3.88;2.33;;;;;;;-145.06;0.00;60892.56;4801786;28;20779;-91
2022/03/01 10:08:16;;;;;;;3.35;2.22;;;;;;;-145.06;0.00;60892.56;4799190;28;20027;-91
2022/03/01 10:10:57;;;;;;;2.95;2.00;;;;;;;-145.06;0.00;60892.56;4768390;29;20054;-92
2022/03/01 10:13:39;;;;;;;3.70;2.20;;;;;;;8.08;0.00;60892.56;4775518;29;20074;-92
2022/03/01 10:16:18;;;;;;;4.03;2.35;;;;;;;8.02;0.00;60892.56;4781615;29;20034;-92
2022/03/01 10:18:57;;;;;;;3.55;2.15;;;;;;;-145.06;0.00;60892.56;4782970;29;20035;-92
2022/03/01 10:21:42;;;;;;;3.50;2.35;;;;;;;-145.06;0.00;60892.56;4764025;29;20035;-91
2022/03/01 10:24:20;;;;;;;2.45;1.90;;;;;;;-145.06;0.00;60892.56;4773092;29;20035;-91
2022/03/01 10:27:05;;;;;;;4.05;2.55;;;;;;;-145.06;0.00;60892.56;4782120;29;20118;-92
2022/03/01 10:29:48;;;;;;;3.53;2.35;;;;;;;-145.06;0.00;60892.56;4781783;29;20027;-93
2022/03/01 10:32:27;;;;;;;4.03;2.53;;;;;;;-145.06;0.00;60892.56;4770743;29;20031;-91
2022/03/01 10:35:08;;;;;;;4.05;2.70;;;;;;;-145.06;0.00;60892.56;4778683;28;20035;-92
2022/03/01 10:37:49;;;;;;;4.60;2.38;;;;;;;-145.06;0.00;60892.56;4783033;28;20087;-91
2022/03/01 10:40:29;;;;;;;2.65;1.90;;;;;;;-145.06;0.00;60892.56;4768232;29;20031;-92
2022/03/01 10:43:11;;;;;;;3.17;2.40;;;;;;;-145.06;0.00;60892.56;4774482;28;20098;-91
2022/03/01 10:45:51;;;;;;;4.38;2.65;;;;;;;-145.06;0.00;60892.56;4781464;29;20556;-92
2022/03/01 10:48:34;;;;;;;3.38;2.50;;;;;;;-145.06;0.00;60892.56;4766779;28;20031;-92
2022/03/01 10:51:19;;;;;;;4.53;2.80;;;;;;;-145.06;0.00;60892.56;4792248;28;20034;-93
2022/03/01 10:54:01;;;;;;;5.13;2.67;;;;;;;-145.06;0.00;60892.56;4763586;29;20031;-92
2022/03/01 10:56:41;;;;;;;3.25;2.10;;;;;;;-145.06;0.00;60892.56;4767886;29;20035;-92
2022/03/01 10:59:21;;;;;;;3.67;2.40;;;;;;;-145.06;0.00;60892.56;4767419;29;20035;-91
2022/03/01 11:02:01;;;;;;;4.13;2.95;;;;;;;-145.06;0.00;60892.56;4767160;29;20062;-92
2022/03/01 11:04:40;;;;;;;4.32;2.60;;;;;;;21.08;0.00;60892.56;4773924;29;20757;-92
2022/03/01 11:07:22;;;;;;;4.28;2.45;;;;;;;9.14;0.00;60892.56;4788088;28;20065;-92
2022/03/01 11:10:06;;;;;;;3.72;2.42;;;;;;;9.11;0.00;60892.56;4767841;29;20035;-93
2022/03/01 11:12:52;;;;;;;2.72;1.75;;;;;;;9.16;0.00;60892.56;4780529;28;20457;-93
2022/03/01 11:15:59;;;;;;;2.70;1.92;;;;;;;9.19;0.00;60892.56;4760390;29;20031;-92
2022/03/01 11:18:59;;;;;;;3.05;2.20;;;;;;;9.25;0.00;60892.56;4780034;29;20019;-91
2022/03/01 11:21:47;;;;;;;3.60;2.63;;;;;;;10.68;0.00;60892.56;4758571;29;20035;-91
2022/03/01 11:24:27;;;;;;;3.25;2.15;;;;;;;9.36;0.00;60892.56;4775674;29;20027;-92
2022/03/01 11:27:07;;;;;;;3.65;2.50;;;;;;;-145.06;0.00;60892.56;4768804;29;20027;-92
2022/03/01 11:29:47;;;;;;;3.15;2.00;;;;;;;-145.06;0.00;60892.56;4771634;28;20616;-93
2022/03/01 11:32:28;;;;;;;3.78;2.30;;;;;;;-145.06;0.00;60892.56;4786942;28;20030;-93
2022/03/01 11:35:19;;;;;;;2.95;1.90;;;;;;;-145.06;0.00;60892.56;4783623;28;20042;-91
2022/03/01 11:38:16;;;;;;;3.10;2.03;;;;;;;-145.06;0.00;60892.56;4779171;29;20031;-90
2022/03/01 11:41:14;;;;;;;3.35;2.25;;;;;;;-145.06;0.00;60892.56;4767698;29;20430;-92
2022/03/01 11:44:00;;;;;;;4.80;3.10;;;;;;;-145.06;0.00;60892.56;4767598;29;20359;-93
2022/03/01 11:46:41;;;;;;;3.40;2.20;;;;;;;-145.06;0.00;60892.56;4761136;29;20426;-91
2022/03/01 11:49:21;;;;;;;3.63;2.35;;;;;;;-145.06;0.00;60892.56;4767551;29;20055;-91
2022/03/01 11:52:00;;;;;;;4.38;2.58;;;;;;;-145.06;0.00;60892.56;4784691;28;20031;-92
2022/03/01 11:54:40;;;;;;;3.80;2.53;;;;;;;-145.06;0.00;60892.56;4779470;29;20031;-93
2022/03/01 11:57:25;;;;;;;2.83;2.00;;;;;;;-145.06;0.00;60892.56;4752183;29;20502;-93
2022/03/01 12:00:05;;;;;;;2.25;1.83;;;;;;;-145.06;0.00;60892.56;4777104;29;20039;-92
2022/03/01 12:02:46;;;;;;;;;;;;;;;-145.06;0.00;60892.56;4772012;29;20043;-92
2022/03/01 12:05:27;;;;;;;3.05;1.73;;;;;;;-145.06;0.00;60892.56;4778169;29;19914;-92
2022/03/01 12:08:09;;;;;;;2.33;1.60;;;;;;;-145.06;0.00;60892.56;4780106;29;20035;-93
2022/03/01 12:10:57;;;;;;;2.65;1.80;;;;;;;10.45;0.00;60892.56;4780246;29;20031;-93
2022/03/01 12:13:41;;;;;;;2.00;1.33;;;;;;;-145.06;0.00;60892.56;4766826;29;20394;-91
2022/03/01 12:16:30;;;;;;;3.42;1.73;;;;;;;-145.06;0.00;60892.56;4780128;28;20039;-92
2022/03/01 12:19:12;;;;;;;2.83;1.58;;;;;;;-145.06;0.00;60892.56;4780146;28;20035;-92
2022/03/01 12:21:58;;;;;;;2.42;1.63;;;;;;;-145.06;0.00;60892.56;4774580;29;20707;-92
2022/03/01 12:24:37;;;;;;;3.08;1.98;;;;;;;-145.06;0.00;60892.56;4758999;29;20031;-92
2022/03/01 12:27:18;;;;;;;2.40;1.93;;;;;;;-145.06;0.00;60892.56;4762178;29;20035;-93
2022/03/01 12:30:03;;;;;;;2.30;1.58;;;;;;;-145.06;0.00;60892.56;4779964;29;20066;-92